Time;durP1;ratioP1;P1;durP2;ratioP2;P2;SDS_P1;SDS_P2;PMS_P1;PMS_P2;Temp;Humidity;BMP_temperature;BMP_pressure;BME280_temperature;BME280_humidity;BME280_pressure;Samples;Min_cycle;Max_cycle;Signal;HPM_P1;HPM_P2
2022/05/15 00:02:32;;;;;;;11.68;8.65;;;;;;;15.50;100.00;97528.59;5082141;28;20096;-81
2022/05/15 00:04:58;;;;;;;12.13;7.78;;;;;;;15.49;100.00;97530.41;5083090;28;20020;-81
2022/05/15 00:07:24;;;;;;;13.50;7.95;;;;;;;15.50;100.00;97528.59;5072320;28;20472;-81
2022/05/15 00:09:49;;;;;;;12.85;8.38;;;;;;;15.45;100.00;97526.22;5073053;28;20086;-82
2022/05/15 00:12:20;;;;;;;12.73;7.88;;;;;;;15.38;100.00;97529.56;5073578;28;20028;-82
2022/05/15 00:14:46;;;;;;;12.75;8.02;;;;;;;15.30;100.00;97522.09;5082093;28;20107;-82
2022/05/15 00:17:12;;;;;;;13.88;7.80;;;;;;;15.23;100.00;97528.09;5052344;28;20024;-81
2022/05/15 00:19:38;;;;;;;12.18;8.00;;;;;;;15.32;100.00;97530.06;5056676;28;20415;-81
2022/05/15 00:22:04;;;;;;;18.40;8.75;;;;;;;15.21;100.00;97525.53;5078559;28;20051;-81
2022/05/15 00:24:29;;;;;;;16.48;8.27;;;;;;;15.13;100.00;97536.06;5055084;28;20040;-81
2022/05/15 00:26:55;;;;;;;12.07;7.53;;;;;;;15.03;100.00;97535.94;5056509;28;20048;-80
2022/05/15 00:29:21;;;;;;;15.35;7.88;;;;;;;14.94;100.00;97522.34;5052350;28;20024;-82
2022/05/15 00:31:47;;;;;;;18.83;8.30;;;;;;;14.90;100.00;97528.97;5052513;28;20028;-82
2022/05/15 00:34:12;;;;;;;10.82;7.80;;;;;;;14.91;100.00;97533.38;5062931;28;20056;-83
2022/05/15 00:36:38;;;;;;;10.95;7.35;;;;;;;14.91;100.00;97528.00;5072033;28;20110;-82
2022/05/15 00:39:06;;;;;;;9.73;7.47;;;;;;;14.87;100.00;97537.28;5058769;28;20031;-81
2022/05/15 00:41:32;;;;;;;11.18;8.30;;;;;;;14.77;100.00;97537.16;5073013;28;20399;-81
2022/05/15 00:43:59;;;;;;;10.68;7.47;;;;;;;14.79;100.00;97531.66;5081360;28;20449;-82
2022/05/15 00:46:28;;;;;;;15.13;7.90;;;;;;;14.76;100.00;97537.28;5076996;28;20495;-82
2022/05/15 00:48:55;;;;;;;10.00;7.90;;;;;;;14.86;100.00;97546.38;5075156;28;20111;-82
2022/05/15 00:51:28;;;;;;;12.60;8.43;;;;;;;14.81;100.00;97529.69;5058477;28;20549;-81
2022/05/15 00:54:05;;;;;;;11.60;7.93;;;;;;;14.80;100.00;97530.66;5092334;28;20024;-82
2022/05/15 00:56:34;;;;;;;9.93;7.50;;;;;;;14.63;100.00;97537.38;5077146;28;20395;-83
2022/05/15 00:59:07;;;;;;;14.95;8.07;;;;;;;14.69;100.00;97546.81;5088875;28;20514;-82
2022/05/15 01:01:33;;;;;;;11.25;7.68;;;;;;;14.73;100.00;97542.91;5075534;28;20025;-82
2022/05/15 01:04:00;;;;;;;13.20;7.90;;;;;;;14.68;100.00;97537.00;5076668;28;20024;-82
2022/05/15 01:06:25;;;;;;;14.80;7.88;;;;;;;14.63;100.00;97537.38;5055494;28;20032;-82
2022/05/15 01:08:51;;;;;;;14.25;8.35;;;;;;;14.64;100.00;97539.13;5055371;28;20048;-82
2022/05/15 01:11:18;;;;;;;11.68;8.02;;;;;;;14.62;100.00;97536.53;5082027;28;20032;-82
2022/05/15 01:13:44;;;;;;;15.90;9.27;;;;;;;14.57;100.00;97533.34;5071267;28;20568;-81
2022/05/15 01:16:11;;;;;;;16.67;8.68;;;;;;;14.53;100.00;97539.94;5074955;28;20495;-81
2022/05/15 01:18:38;;;;;;;13.75;8.70;;;;;;;14.52;100.00;97538.22;5075283;28;20089;-81
2022/05/15 01:21:33;;;;;;;9.65;7.70;;;;;;;14.42;100.00;97537.22;5075286;28;20040;-82
2022/05/15 01:24:00;;;;;;;10.73;8.35;;;;;;;14.34;100.00;97533.41;5079392;28;20487;-82
2022/05/15 01:26:26;;;;;;;16.92;9.27;;;;;;;14.21;100.00;97533.47;5085191;28;20060;-82
2022/05/15 01:28:53;;;;;;;18.08;8.43;;;;;;;14.21;100.00;97524.53;5071629;28;20117;-82
2022/05/15 01:31:19;;;;;;;14.18;8.95;;;;;;;14.19;100.00;97524.66;5054819;28;20031;-83
2022/05/15 01:33:49;;;;;;;14.38;7.38;;;;;;;14.05;100.00;97525.72;5055000;28;20024;-82
2022/05/15 01:36:16;;;;;;;10.90;7.50;;;;;;;14.00;100.00;97527.03;5063267;28;20060;-82
2022/05/15 01:38:42;;;;;;;12.13;7.88;;;;;;;13.80;100.00;97525.84;5080049;28;20024;-82
2022/05/15 01:41:07;;;;;;;13.00;7.53;;;;;;;13.76;100.00;97518.13;5054783;28;20028;-82
2022/05/15 01:43:33;;;;;;;14.88;7.32;;;;;;;13.77;100.00;97526.09;5066061;28;20028;-82
2022/05/15 01:45:59;;;;;;;12.23;8.10;;;;;;;13.85;100.00;97522.81;5076728;28;20020;-81
2022/05/15 01:48:26;;;;;;;13.68;8.15;;;;;;;13.81;100.00;97526.72;5073062;28;20024;-82
2022/05/15 01:50:52;;;;;;;13.45;8.27;;;;;;;13.77;100.00;97512.66;5074903;28;20024;-82
2022/05/15 01:53:18;;;;;;;13.18;9.00;;;;;;;13.83;100.00;97530.13;5091479;28;20035;-82
2022/05/15 01:55:44;;;;;;;14.82;8.75;;;;;;;13.84;100.00;97523.81;5074735;28;20032;-82
2022/05/15 01:58:10;;;;;;;14.70;10.10;;;;;;;13.76;100.00;97510.91;5087182;28;20028;-82
2022/05/15 02:00:36;;;;;;;16.27;8.70;;;;;;;13.80;100.00;97525.00;5084062;28;20093;-82
2022/05/15 02:03:01;;;;;;;15.02;9.45;;;;;;;13.71;100.00;97517.63;5064991;28;20460;-81
2022/05/15 02:05:27;;;;;;;14.15;9.38;;;;;;;13.68;100.00;97512.47;5081284;28;20060;-81
2022/05/15 02:07:53;;;;;;;12.07;8.23;;;;;;;13.74;100.00;97525.47;5054950;28;20048;-82
2022/05/15 02:10:19;;;;;;;12.23;8.57;;;;;;;13.58;100.00;97526.59;5061240;28;20060;-83
2022/05/15 02:12:44;;;;;;;12.27;8.68;;;;;;;13.48;100.00;97528.25;5083265;28;20411;-82
2022/05/15 02:15:11;;;;;;;15.48;9.50;;;;;;;13.55;100.00;97532.19;5079596;28;20107;-82
2022/05/15 02:17:37;;;;;;;14.10;8.48;;;;;;;13.48;100.00;97516.63;5054024;28;20407;-82
2022/05/15 02:20:05;;;;;;;12.75;8.40;;;;;;;13.49;100.00;97527.28;5062343;28;20032;-81
2022/05/15 02:22:30;;;;;;;12.98;8.68;;;;;;;13.40;100.00;97521.72;5062402;28;20029;-82
2022/05/15 02:24:56;;;;;;;13.40;8.98;;;;;;;13.32;100.00;97522.28;5088018;28;20471;-80
2022/05/15 02:27:22;;;;;;;13.27;8.48;;;;;;;13.42;100.00;97531.38;5078242;28;20027;-82
2022/05/15 02:29:48;;;;;;;13.13;9.30;;;;;;;13.44;100.00;97532.13;5069878;28;20028;-81
2022/05/15 02:32:13;;;;;;;17.35;8.93;;;;;;;13.42;100.00;97530.53;5070605;28;20115;-82
2022/05/15 02:34:39;;;;;;;13.77;9.00;;;;;;;13.33;100.00;97529.38;5085701;28;20471;-82
2022/05/15 02:37:05;;;;;;;13.98;9.40;;;;;;;13.38;100.00;97535.25;5090595;28;20028;-82
2022/05/15 02:39:31;;;;;;;13.23;8.85;;;;;;;13.35;100.00;97534.66;5091888;28;20144;-82
2022/05/15 02:41:56;;;;;;;13.73;9.63;;;;;;;13.40;100.00;97540.53;5065092;28;20105;-82
2022/05/15 02:44:22;;;;;;;12.73;9.15;;;;;;;13.31;100.00;97539.38;5074206;28;20463;-82
2022/05/15 02:46:47;;;;;;;15.55;8.70;;;;;;;13.21;100.00;97546.38;5073658;28;20023;-83
2022/05/15 02:51:57;;;;;;;14.00;8.68;;;;;;;13.14;100.00;97547.78;5090841;28;20042;-84
2022/05/15 02:54:23;;;;;;;16.48;7.97;;;;;;;13.16;100.00;97545.88;5065783;28;20111;-84
2022/05/15 02:56:49;;;;;;;13.63;7.78;;;;;;;13.07;100.00;97546.50;5073817;28;20422;-84
2022/05/15 02:59:16;;;;;;;14.13;8.50;;;;;;;13.06;100.00;97550.16;5090433;28;20127;-83
2022/05/15 03:01:41;;;;;;;13.15;8.32;;;;;;;13.00;100.00;97551.47;5067666;28;20036;-84
2022/05/15 03:04:07;;;;;;;12.63;8.50;;;;;;;13.00;100.00;97551.47;5055028;28;20535;-85
2022/05/15 03:06:33;;;;;;;19.63;8.98;;;;;;;13.02;100.00;97559.38;5082405;28;20507;-85
2022/05/15 03:08:58;;;;;;;12.85;8.52;;;;;;;13.05;100.00;97545.75;5082512;28;20072;-85
2022/05/15 03:11:25;;;;;;;14.60;8.77;;;;;;;13.15;100.00;97549.53;5070081;28;20024;-83
2022/05/15 03:13:50;;;;;;;12.68;8.73;;;;;;;13.09;100.00;97539.22;5077513;28;20381;-85
2022/05/15 03:16:18;;;;;;;11.77;8.00;;;;;;;13.12;100.00;97543.50;5055239;28;20108;-83
2022/05/15 03:18:50;;;;;;;12.55;7.95;;;;;;;13.07;100.00;97541.13;5054159;28;20025;-83
2022/05/15 03:21:28;;;;;;;15.13;8.70;;;;;;;13.12;100.00;97551.56;5053557;28;20025;-84
2022/05/15 03:24:01;;;;;;;13.23;8.70;;;;;;;13.09;100.00;97549.97;5070856;28;20038;-84
2022/05/15 03:26:28;;;;;;;11.45;8.77;;;;;;;13.03;100.00;97550.38;5082173;28;20480;-84
2022/05/15 03:28:54;;;;;;;14.25;8.98;;;;;;;13.04;100.00;97552.94;5090779;28;20031;-84
2022/05/15 03:31:20;;;;;;;19.10;8.98;;;;;;;13.07;100.00;97557.25;5056920;28;20032;-83
2022/05/15 03:33:47;;;;;;;21.13;9.90;;;;;;;13.02;100.00;97556.69;5076461;28;20060;-85
2022/05/15 03:36:14;;;;;;;16.65;9.30;;;;;;;13.00;100.00;97561.34;5080076;28;20036;-84
2022/05/15 03:38:41;;;;;;;14.90;9.13;;;;;;;12.95;100.00;97552.75;5078274;28;20408;-85
2022/05/15 03:41:06;;;;;;;19.80;10.15;;;;;;;12.99;100.00;97551.53;5064479;28;20408;-87
2022/05/15 03:43:34;;;;;;;23.65;9.38;;;;;;;12.99;100.00;97560.47;5088931;28;20021;-86
2022/05/15 03:46:00;;;;;;;14.13;9.55;;;;;;;13.12;100.00;97562.31;5079385;28;20028;-84
2022/05/15 03:48:25;;;;;;;16.30;9.75;;;;;;;13.23;100.00;97562.38;5053446;28;20036;-88
2022/05/15 03:50:51;;;;;;;16.48;9.88;;;;;;;13.32;100.00;97575.19;5076706;28;20024;-85
2022/05/15 03:53:17;;;;;;;16.65;10.23;;;;;;;13.31;100.00;97563.56;5064372;28;20081;-88
2022/05/15 03:55:42;;;;;;;15.15;9.02;;;;;;;13.35;100.00;97574.94;5067055;28;20028;-85
2022/05/15 03:58:08;;;;;;;14.20;9.13;;;;;;;13.39;100.00;97563.84;5090375;28;20039;-83
2022/05/15 04:00:34;;;;;;;15.88;9.23;;;;;;;13.47;100.00;97566.81;5081612;28;20024;-83
2022/05/15 04:03:01;;;;;;;17.00;9.05;;;;;;;13.43;100.00;97570.72;5066481;28;20029;-83
2022/05/15 04:05:28;;;;;;;14.38;9.30;;;;;;;13.55;100.00;97574.34;5055363;28;20051;-83
2022/05/15 04:07:56;;;;;;;13.95;9.27;;;;;;;13.65;100.00;97571.84;5064693;28;20046;-84
2022/05/15 04:10:23;;;;;;;19.55;9.88;;;;;;;13.77;100.00;97573.63;5065343;28;20478;-83
2022/05/15 04:12:48;;;;;;;14.00;9.40;;;;;;;13.97;100.00;97587.28;5068265;28;20043;-84
2022/05/15 04:15:14;;;;;;;16.50;9.93;;;;;;;14.01;100.00;97577.16;5078123;28;20474;-82
2022/05/15 04:17:41;;;;;;;17.88;10.00;;;;;;;14.18;100.00;97582.09;5061185;28;20059;-83
2022/05/15 04:20:08;;;;;;;13.73;9.70;;;;;;;14.24;100.00;97576.28;5077189;28;20035;-84
2022/05/15 04:22:33;;;;;;;16.50;9.70;;;;;;;14.30;100.00;97583.91;5072155;28;20047;-84
2022/05/15 04:24:59;;;;;;;22.15;10.52;;;;;;;15.16;100.00;97585.16;5083299;28;20028;-84
2022/05/15 04:27:25;;;;;;;18.30;9.48;;;;;;;16.84;97.61;97605.34;5065910;28;20024;-84
2022/05/15 04:29:52;;;;;;;34.05;9.57;;;;;;;17.32;91.40;97595.66;5056825;28;20541;-84
2022/05/15 04:32:18;;;;;;;15.32;9.35;;;;;;;18.17;86.23;97609.63;5056671;28;20039;-83
2022/05/15 04:34:43;;;;;;;16.80;8.85;;;;;;;18.02;83.04;97604.75;5068537;28;20024;-84
2022/05/15 04:37:09;;;;;;;13.48;9.15;;;;;;;17.45;86.62;97606.22;5093705;28;20028;-84
2022/05/15 04:39:35;;;;;;;43.72;18.10;;;;;;;16.83;92.13;97589.28;5066495;28;20044;-84
2022/05/15 04:42:01;;;;;;;24.50;10.52;;;;;;;16.52;95.66;97610.75;5062244;28;20036;-84
2022/05/15 04:44:27;;;;;;;24.05;10.77;;;;;;;16.27;98.96;97611.13;5067128;28;20468;-83
2022/05/15 04:46:53;;;;;;;28.75;10.55;;;;;;;16.27;100.00;97600.34;5061194;28;20400;-84
2022/05/15 04:49:18;;;;;;;25.33;12.50;;;;;;;16.10;100.00;97598.16;5093802;28;20073;-84
2022/05/15 04:51:44;;;;;;;17.85;10.07;;;;;;;16.21;100.00;97607.06;5085655;28;20027;-83
2022/05/15 04:54:10;;;;;;;17.63;10.93;;;;;;;16.37;100.00;97612.06;5087173;28;20025;-83
2022/05/15 04:56:35;;;;;;;15.23;11.10;;;;;;;16.32;100.00;97614.28;5055873;28;20089;-83
2022/05/15 04:59:01;;;;;;;21.92;11.25;;;;;;;16.29;100.00;97609.16;5073158;28;20024;-83
2022/05/15 05:01:27;;;;;;;17.65;11.18;;;;;;;16.32;100.00;97602.63;5055802;28;20032;-84
2022/05/15 05:03:54;;;;;;;15.43;11.63;;;;;;;16.43;99.01;97603.44;5068565;28;20078;-83
2022/05/15 05:06:20;;;;;;;17.92;11.55;;;;;;;16.47;98.42;97609.44;5060230;28;20052;-83
2022/05/15 05:08:46;;;;;;;25.73;12.75;;;;;;;16.42;99.08;97608.97;5063561;28;20090;-81
2022/05/15 05:11:11;;;;;;;27.95;15.68;;;;;;;16.65;98.45;97605.19;5086372;28;20073;-83
2022/05/15 05:13:37;;;;;;;22.88;13.93;;;;;;;16.96;97.91;97609.69;5092504;28;20024;-82
2022/05/15 05:16:03;;;;;;;19.40;12.63;;;;;;;17.25;94.10;97599.03;5067289;28;20450;-83
2022/05/15 05:18:28;;;;;;;18.00;11.68;;;;;;;18.00;88.86;97602.16;5059860;28;20064;-83
2022/05/15 05:20:54;;;;;;;17.23;11.88;;;;;;;20.13;76.95;97609.75;5077341;28;20028;-84
2022/05/15 05:23:23;;;;;;;19.30;12.18;;;;;;;22.49;66.22;97617.53;5075110;28;20032;-82
2022/05/15 05:25:49;;;;;;;19.20;11.13;;;;;;;24.53;57.04;97596.00;5089798;28;20496;-83
2022/05/15 05:28:15;;;;;;;19.83;12.20;;;;;;;25.96;50.98;97591.31;5064355;28;20155;-83
2022/05/15 05:30:42;;;;;;;25.05;12.30;;;;;;;26.89;47.92;97599.63;5073154;28;20132;-83
2022/05/15 05:33:08;;;;;;;17.92;12.43;;;;;;;26.73;47.30;97602.63;5077746;28;20494;-85
2022/05/15 05:35:34;;;;;;;21.90;11.95;;;;;;;27.68;46.10;97594.84;5079324;28;20044;-81
2022/05/15 05:38:00;;;;;;;27.00;11.57;;;;;;;29.09;42.97;97595.03;5070121;28;20403;-82
2022/05/15 06:19:35;;;;;;;17.85;11.73;;;;;;;30.35;44.21;97614.06;5077233;28;20056;-83
2022/05/15 06:22:01;;;;;;;14.88;10.45;;;;;;;29.26;45.90;97627.53;5062520;28;20073;-89
2022/05/15 06:24:27;;;;;;;17.27;10.88;;;;;;;28.65;43.14;97612.09;5068486;28;20046;-85
2022/05/15 06:26:54;;;;;;;12.38;9.70;;;;;;;29.75;43.39;97613.31;5070304;28;20422;-84
2022/05/15 06:29:19;;;;;;;19.85;11.02;;;;;;;30.27;40.08;97595.78;5067268;28;20024;-84
2022/05/15 06:31:46;;;;;;;32.55;13.43;;;;;;;31.74;36.50;97587.28;5064673;28;20043;-86
2022/05/15 06:34:13;;;;;;;16.35;10.18;;;;;;;31.14;39.84;97597.94;5070434;28;20023;-86
2022/05/15 06:36:40;;;;;;;16.70;10.07;;;;;;;29.49;43.10;97608.69;5060597;28;20130;-83
2022/05/15 06:39:06;;;;;;;21.77;9.82;;;;;;;29.27;44.34;97626.47;5082237;28;20039;-83
2022/05/15 06:41:31;;;;;;;17.25;10.02;;;;;;;29.40;41.65;97615.47;5082760;28;20158;-83
2022/05/15 06:43:57;;;;;;;24.88;11.50;;;;;;;28.82;43.00;97625.31;5063125;28;20502;-82
2022/05/15 06:46:23;;;;;;;21.40;12.77;;;;;;;28.73;43.70;97631.22;5059048;28;20031;-83
2022/05/15 06:48:49;;;;;;;30.17;11.55;;;;;;;28.81;44.25;97642.03;5057456;28;20039;-82
2022/05/15 06:51:16;;;;;;;15.73;7.43;;;;;;;29.27;44.84;97625.63;5071547;28;20069;-83
2022/05/15 06:53:46;;;;;;;17.77;8.68;;;;;;;29.41;42.43;97622.66;5090781;28;20484;-82
2022/05/15 06:59:02;;;;;;;17.48;5.95;;;;;;;30.41;38.06;97608.53;5034854;28;20047;-82
2022/05/15 07:01:28;;;;;;;12.48;6.10;;;;;;;30.44;37.74;97619.16;5062194;28;20026;-83
2022/05/15 07:03:54;;;;;;;9.15;4.80;;;;;;;29.46;38.97;97627.56;5078905;28;20031;-83
2022/05/15 07:06:19;;;;;;;13.60;5.82;;;;;;;29.03;40.21;97627.06;5061466;28;20024;-83
2022/05/15 07:08:45;;;;;;;19.25;5.57;;;;;;;28.17;41.56;97627.75;5061792;28;20030;-83
2022/05/15 07:11:12;;;;;;;16.30;5.28;;;;;;;27.64;41.96;97643.03;5070611;28;20432;-83
2022/05/15 07:13:38;;;;;;;10.27;3.97;;;;;;;27.21;41.53;97643.06;5085316;28;20027;-83
2022/05/15 07:16:04;;;;;;;6.85;4.70;;;;;;;27.22;41.90;97642.03;5064743;28;20428;-83
2022/05/15 07:18:30;;;;;;;9.55;3.85;;;;;;;27.60;41.44;97636.22;5081528;28;20093;-83
2022/05/15 07:20:55;;;;;;;8.02;4.65;;;;;;;28.51;40.51;97631.31;5056096;28;20111;-82
2022/05/15 07:23:21;;;;;;;8.73;4.47;;;;;;;29.73;39.11;97623.72;5064715;28;20032;-81
2022/05/15 07:25:48;;;;;;;8.00;4.80;;;;;;;30.39;37.83;97621.72;5073128;28;20467;-82
2022/05/15 07:28:14;;;;;;;8.05;3.95;;;;;;;30.01;37.43;97612.44;5072687;28;20020;-82
2022/05/15 07:30:40;;;;;;;6.60;3.42;;;;;;;29.92;36.78;97611.84;5072880;28;20046;-81
2022/05/15 07:33:06;;;;;;;7.00;3.92;;;;;;;29.96;37.02;97609.50;5056141;28;20244;-82
2022/05/15 07:35:32;;;;;;;23.77;4.45;;;;;;;30.01;36.69;97601.41;5072995;28;20487;-82
2022/05/15 07:37:57;;;;;;;7.10;2.90;;;;;;;30.88;33.76;97604.47;5081380;28;20124;-82
2022/05/15 07:40:23;;;;;;;5.55;3.42;;;;;;;30.69;34.43;97610.97;5056207;28;20409;-82
2022/05/15 07:42:49;;;;;;;22.67;3.55;;;;;;;30.96;34.26;97601.47;5065785;28;20095;-82
2022/05/15 07:45:15;;;;;;;5.88;3.22;;;;;;;31.08;34.35;97615.44;5052540;28;20028;-82
2022/05/15 07:47:41;;;;;;;5.53;3.13;;;;;;;31.14;34.05;97614.53;5069403;28;20024;-82
2022/05/15 07:50:08;;;;;;;8.35;3.30;;;;;;;32.50;32.56;97613.50;5061675;28;20024;-82
2022/05/15 07:52:34;;;;;;;11.52;3.72;;;;;;;32.80;31.50;97604.41;5072435;28;20027;-82
2022/05/15 07:55:00;;;;;;;7.80;3.42;;;;;;;33.18;30.71;97604.94;5089410;28;20024;-82
2022/05/15 07:57:26;;;;;;;8.15;3.40;;;;;;;32.74;31.36;97612.56;5075412;28;20028;-82
2022/05/15 07:59:52;;;;;;;5.10;3.42;;;;;;;32.94;31.13;97612.31;5078251;28;20050;-82
2022/05/15 08:02:18;;;;;;;7.47;3.33;;;;;;;32.84;31.13;97613.94;5074905;28;20023;-82
2022/05/15 08:10:11;;;;;;;7.68;3.50;;;;;;;34.74;28.73;97603.19;5092435;28;20038;-82
2022/05/15 08:12:37;;;;;;;11.80;4.60;;;;;;;35.31;28.16;97608.78;5086252;28;20028;-83
2022/05/15 08:15:05;;;;;;;6.15;3.42;;;;;;;35.03;28.58;97611.56;5091148;28;20024;-83
2022/05/15 08:17:30;;;;;;;8.35;3.10;;;;;;;34.70;28.08;97618.66;5073753;28;20379;-82
2022/05/15 08:25:24;;;;;;;7.22;3.22;;;;;;;34.98;27.66;97620.63;5086531;28;20085;-83
2022/05/15 08:27:49;;;;;;;7.45;2.60;;;;;;;35.61;27.20;97619.63;5093122;28;20024;-84
2022/05/15 08:30:15;;;;;;;5.78;3.20;;;;;;;36.61;25.18;97602.81;5083779;28;20024;-84
2022/05/15 08:32:41;;;;;;;5.22;3.00;;;;;;;36.17;25.90;97605.53;5056164;28;20028;-84
2022/05/15 08:35:08;;;;;;;4.88;3.05;;;;;;;36.29;26.37;97616.56;5072372;28;20034;-83
2022/05/15 08:37:33;;;;;;;5.55;3.88;;;;;;;36.15;26.77;97618.00;5087225;28;20028;-84
2022/05/15 08:39:59;;;;;;;7.45;2.90;;;;;;;35.78;26.67;97620.47;5075850;28;20028;-84
2022/05/15 08:42:46;;;;;;;7.80;3.28;;;;;;;35.34;26.74;97627.75;5057184;28;20422;-83
2022/05/15 08:45:14;;;;;;;12.25;4.15;;;;;;;35.50;27.19;97624.13;5073457;28;20066;-82
2022/05/15 08:47:59;;;;;;;6.78;3.15;;;;;;;35.90;25.93;97618.47;5079572;28;20020;-84
2022/05/15 08:50:28;;;;;;;4.38;2.60;;;;;;;35.63;25.79;97623.84;5075882;28;20399;-83
2022/05/15 08:53:06;;;;;;;7.18;2.72;;;;;;;35.23;26.56;97621.16;5067343;28;20032;-84
2022/05/15 08:55:37;;;;;;;10.32;4.53;;;;;;;35.50;26.77;97621.34;5077635;28;20025;-84
2022/05/15 08:58:11;;;;;;;8.88;4.82;;;;;;;35.47;27.25;97635.78;5066711;28;20035;-83
2022/05/15 09:00:44;;;;;;;5.82;3.40;;;;;;;36.36;26.44;97631.19;5061040;28;20064;-84
2022/05/15 09:03:21;;;;;;;7.97;3.58;;;;;;;36.64;25.25;97628.22;5089190;28;20502;-84
2022/05/15 09:05:50;;;;;;;8.88;4.00;;;;;;;37.21;24.98;97636.22;5072172;28;20024;-84
2022/05/15 09:08:25;;;;;;;11.70;3.53;;;;;;;37.49;24.59;97627.59;5072868;28;20028;-84
2022/05/15 09:11:06;;;;;;;6.38;2.95;;;;;;;36.52;25.02;97621.94;5083513;28;20377;-82
2022/05/15 09:13:55;;;;;;;10.50;2.53;;;;;;;35.70;26.42;97630.09;5090918;28;20024;-83
2022/05/15 09:16:30;;;;;;;7.47;2.85;;;;;;;35.65;26.43;97629.19;5086657;28;20020;-84
2022/05/15 09:19:06;;;;;;;10.38;2.80;;;;;;;34.14;27.48;97621.28;5091929;28;20044;-83
2022/05/15 09:21:32;;;;;;;5.53;3.15;;;;;;;32.55;29.45;97630.25;5079247;28;20136;-83
2022/05/15 09:24:07;;;;;;;11.32;3.65;;;;;;;32.14;30.66;97636.50;5065553;28;20024;-83
2022/05/15 09:26:44;;;;;;;6.28;3.17;;;;;;;33.68;28.18;97636.84;5074967;28;20108;-83
2022/05/15 09:29:27;;;;;;;6.68;2.97;;;;;;;35.16;26.27;97617.66;5074697;28;20031;-83
2022/05/15 09:31:52;;;;;;;7.63;3.45;;;;;;;36.10;25.85;97617.94;5090334;28;20130;-83
2022/05/15 09:34:28;;;;;;;7.28;3.05;;;;;;;36.12;25.79;97624.09;5073457;28;20411;-84
2022/05/15 09:38:26;;;;;;;5.18;2.80;;;;;;;35.79;25.25;97622.16;5074606;28;20492;-83
2022/05/15 09:39:47;;;;;;;9.38;3.13;;;;;;;34.64;26.95;97625.22;5091699;28;20511;-83
2022/05/15 09:45:19;;;;;;;9.30;2.80;;;;;;;33.17;28.46;97633.75;5092844;28;20044;-83
2022/05/15 09:48:06;;;;;;;14.98;3.00;;;;;;;32.60;29.92;97624.94;5091471;28;20028;-83
2022/05/15 09:50:47;;;;;;;10.68;3.20;;;;;;;32.09;30.14;97627.19;5082545;28;20028;-83
2022/05/15 09:53:19;;;;;;;8.38;3.15;;;;;;;31.60;30.52;97628.03;5082785;28;20099;-83
2022/05/15 09:55:59;;;;;;;12.10;3.38;;;;;;;31.01;31.58;97631.22;5074306;28;20031;-83
2022/05/15 09:58:25;;;;;;;6.93;3.15;;;;;;;32.21;30.28;97636.41;5074442;28;20028;-83
2022/05/15 10:01:10;;;;;;;9.18;3.40;;;;;;;32.51;29.82;97634.59;5078174;28;20036;-83
2022/05/15 10:03:35;;;;;;;8.60;3.28;;;;;;;31.96;30.58;97633.66;5084384;28;20048;-83
2022/05/15 10:06:09;;;;;;;9.00;3.05;;;;;;;30.59;31.92;97636.28;5057081;28;20072;-82
2022/05/15 10:08:36;;;;;;;10.10;3.10;;;;;;;30.41;32.15;97638.91;5057561;28;20031;-83
2022/05/15 10:11:19;;;;;;;10.45;3.42;;;;;;;30.43;32.79;97644.19;5073997;28;20395;-82
2022/05/15 10:13:52;;;;;;;8.23;3.40;;;;;;;30.29;33.08;97651.66;5072804;28;20094;-83
2022/05/15 10:16:17;;;;;;;13.60;2.90;;;;;;;30.76;32.55;97649.59;5074135;28;20398;-83
2022/05/15 10:19:00;;;;;;;13.32;3.42;;;;;;;31.84;31.50;97646.56;5084012;28;20059;-82
2022/05/15 10:21:52;;;;;;;7.50;3.08;;;;;;;32.17;30.80;97649.91;5070005;28;20033;-83
2022/05/15 10:24:28;;;;;;;;;;;;;;;32.75;29.49;97641.16;5072286;28;20048;-83
2022/05/15 10:27:02;;;;;;;5.43;2.88;;;;;;;33.01;28.32;97623.31;5090689;28;19960;-83
2022/05/15 10:29:49;;;;;;;14.55;3.30;;;;;;;33.17;29.50;97634.59;5090762;28;20140;-85
2022/05/15 10:32:21;;;;;;;9.25;3.30;;;;;;;35.30;26.81;97632.13;5072385;28;20492;-83
2022/05/15 10:34:46;;;;;;;7.03;3.03;;;;;;;34.55;27.45;97621.09;5082673;28;20051;-84
2022/05/15 10:37:30;;;;;;;11.55;3.25;;;;;;;33.69;28.61;97638.50;5056093;28;20052;-82
2022/05/15 10:40:13;;;;;;;7.35;3.03;;;;;;;32.84;29.44;97638.88;5070362;28;20426;-87
2022/05/15 10:43:16;;;;;;;9.82;3.50;;;;;;;31.73;30.14;97639.00;5066866;28;20032;-89
2022/05/15 10:46:03;;;;;;;12.57;4.38;;;;;;;30.60;32.21;97642.66;5103547;28;20020;-88
2022/05/15 10:48:41;;;;;;;15.15;5.15;;;;;;;30.09;33.39;97650.84;5086006;28;20027;-88
2022/05/15 10:51:21;;;;;;;16.45;6.05;;;;;;;29.57;33.85;97655.31;5093228;28;20031;-88
2022/05/15 10:57:29;;;;;;;9.63;4.13;;;;;;;31.06;31.30;97648.00;5085305;28;20403;-89
2022/05/15 11:00:08;;;;;;;6.22;3.53;;;;;;;30.75;31.92;97636.84;5070089;28;20031;-87
2022/05/15 11:03:09;;;;;;;6.03;3.50;;;;;;;30.22;32.42;97639.78;5067153;28;20123;-86
2022/05/15 11:06:12;;;;;;;6.93;3.55;;;;;;;30.20;32.59;97646.59;5086372;28;20119;-88
2022/05/15 11:08:55;;;;;;;7.60;3.60;;;;;;;30.90;31.69;97642.94;5104877;28;20044;-85
2022/05/15 11:11:27;;;;;;;9.50;3.35;;;;;;;32.91;29.57;97647.97;5062988;28;20044;-88
2022/05/15 11:14:12;;;;;;;6.90;3.33;;;;;;;35.14;26.62;97624.56;5068479;28;20028;-90
2022/05/15 11:17:00;;;;;;;13.93;3.28;;;;;;;36.61;25.57;97623.16;5071096;28;20059;-92
2022/05/15 11:19:35;;;;;;;7.05;3.20;;;;;;;37.35;24.29;97623.50;5085740;28;20052;-80
2022/05/15 11:22:11;;;;;;;8.88;3.20;;;;;;;38.05;23.30;97614.13;5063067;28;20549;-90
2022/05/15 11:24:56;;;;;;;9.82;3.08;;;;;;;37.78;23.87;97620.59;5081693;28;20028;-87
2022/05/15 11:27:34;;;;;;;11.60;3.40;;;;;;;37.64;24.09;97618.50;5078051;28;20056;-88
2022/05/15 11:30:04;;;;;;;6.35;3.05;;;;;;;37.51;24.33;97619.78;5083501;28;20399;-83
2022/05/15 11:32:32;;;;;;;9.52;3.10;;;;;;;38.19;23.54;97609.75;5063795;28;20047;-81
2022/05/15 11:35:04;;;;;;;11.38;3.50;;;;;;;37.20;24.37;97607.44;5087354;28;20431;-82
2022/05/15 11:37:43;;;;;;;18.63;3.05;;;;;;;37.19;28.25;97618.88;5084493;28;20024;-80
2022/05/15 11:40:12;;;;;;;27.92;4.15;;;;;;;35.97;25.41;97612.69;5065503;28;20047;-77
2022/05/15 11:42:40;;;;;;;3.28;2.90;;;;;;;36.58;24.40;97594.97;5078630;28;20125;-81
2022/05/15 11:45:38;;;;;;;5.38;3.38;;;;;;;36.59;25.47;97603.06;5082561;28;20107;-81
2022/05/15 11:48:24;;;;;;;7.68;3.42;;;;;;;38.49;26.29;97621.16;5047492;28;20043;-81
2022/05/15 11:51:06;;;;;;;11.50;3.83;;;;;;;38.69;24.83;97614.81;5061596;28;20024;-81
2022/05/15 11:54:00;;;;;;;13.73;7.03;;;;;;;39.14;24.45;97611.38;5082760;28;20118;-77
2022/05/15 11:56:35;;;;;;;11.57;5.38;;;;;;;38.50;25.90;97606.91;5075657;28;20036;-79
2022/05/15 11:59:17;;;;;;;12.25;4.35;;;;;;;38.55;25.04;97603.28;5065815;28;20455;-79
2022/05/15 12:01:43;;;;;;;;;;;;;;;38.78;24.19;97596.38;5079879;28;20353;-77
2022/05/15 12:04:22;;;;;;;13.65;4.45;;;;;;;38.55;24.21;97591.28;5079309;28;20003;-87
2022/05/15 12:07:09;;;;;;;5.88;4.05;;;;;;;37.87;26.88;97615.38;5094600;28;20032;-86
2022/05/15 12:09:41;;;;;;;10.05;4.38;;;;;;;37.62;26.34;97599.25;5084398;28;20042;-88
2022/05/15 12:12:27;;;;;;;;;;;;;;;37.02;25.91;97604.16;5074623;28;20021;-78
2022/05/15 12:15:25;;;;;;;11.75;4.65;;;;;;;36.09;27.32;97599.53;5085480;28;19954;-78
2022/05/15 12:17:50;;;;;;;9.85;4.10;;;;;;;36.09;27.77;97588.38;5086200;28;20039;-78
2022/05/15 12:20:17;;;;;;;9.43;4.80;;;;;;;35.72;27.44;97575.00;5077485;28;20462;-78
2022/05/15 12:22:50;;;;;;;8.27;4.95;;;;;;;36.12;28.14;97587.88;5084061;28;20028;-78
2022/05/15 12:25:16;;;;;;;6.30;4.65;;;;;;;35.98;28.34;97604.09;5064604;28;20398;-78
2022/05/15 12:27:51;;;;;;;7.13;5.28;;;;;;;35.92;27.79;97587.56;5059603;28;20038;-77
2022/05/15 12:30:22;;;;;;;10.13;5.22;;;;;;;35.67;28.57;97602.75;5075601;28;20838;-78
2022/05/15 12:33:20;;;;;;;6.53;5.28;;;;;;;34.42;30.54;97588.03;5080563;28;20103;-82
2022/05/15 12:35:47;;;;;;;12.15;6.13;;;;;;;34.77;29.84;97591.56;5076947;28;20033;-78
2022/05/15 12:38:12;;;;;;;13.90;5.88;;;;;;;35.03;29.03;97575.38;5079345;28;20019;-79
2022/05/15 12:40:42;;;;;;;10.57;5.05;;;;;;;35.46;29.03;97581.22;5079837;28;20086;-77